Flugplatz Kerken (UL)

Hier findest Du alle Informationen zum Flugplatz Kerken (UL).

Informationen für Piloten zum Flugplatz Kerken

Hier findest Du alle relevanten Informationen, die Du als Pilot benötigst, um Kerken anzufliegen.

Flugplatz: Kerken ICAO-Code: UL Flugplatz
Frequenz Turm: 123,425 Mhz GAFOR Gebiet: 31
Frequenz Ground: 123,425 Mhz Mogas: nein
Platzrunde: W 500 ft Landegebühr: 0 €
Platzhöhe: - Sunrise: 07:21 Uhr UTC
Pisten: 02/20 - 280 m x 20 m, GRAS Sunset: 16:11 Uhr UTC

Mitglieder, die in Kerken fliegen

Flugwetter am Flugplatz Kerken

Die METAR Information stammen aus EDLN (23.66 km entfernt).

METAR Code:
2021/12/30 10:50
EDLN 301050Z 23011KT 200V280 9999 FEW012 BKN015 15/13 Q1015

Flugschulen am Flugplatz Kerken

Am Flugplatz Kerken gibt es leider keine Flugschule.

Benachbarte Flugplätze und Flugschulen

Es gibt 16 weitere Flugplätze in einem Umkreis von 50 km um den Flugplatz Kerken.

Jetzt anmelden

Passwort vergessen

Umfrage Archiv

Welche Navigations-App nutzt Ihr im Cockpit

SkyDemon
51.8 %
VFRnav
18.7 %
Ich nutze eine andere App
17.1 %
Ich nutze gar keine App
5.4 %
EasyVFR
5.1 %
ForeFlight
1.9 %
Stimmen: 257 | Diskussion (45)
Anzeige: Roland Aircraft
Statistik Alle Mitglieder

Aktuell sind 52 Besucher online, davon 3 Mitglieder und 49 Gäste.


Mitglieder online:
*Chilla  möchtesogern  Chris_EDNC 

Anzeige: Pocket FMS